Aviation Digital Data Service (ADDS)

Output produced by METARs form (1109 UTC 24 April 2017)
found at http://www.aviationweather.gov/adds/metars/
 
MNBL 232130Z 2400/2424 06006KT 8000 VCRA FEW017CB BKN018 
     BECMG 2403/2406 5000 -DZ/-RA FEW014CB BKN016
       
MNMG 241020Z 2412/2512 VRB06KT 8000 FU FEW021 
     BECMG 2414/2420 SCT023 
     PROB30 2421/2500 9000 VCRA/-DZ SCT022TCU
       
MNPC 232130Z 2400/2424 15006KT 7000 HZ SCT016 SCT100 
     BECMG 2401/2403 05004KT 6000 VCRA BKN017 
     TEMPO 2411/2413 35006KT 7000 -DZ SCT100 
     BECMG 2419/2421 03004KT 8000 HZ SCT016